Aeroporto :
LOGIN :

Iscrizione | Disclaimer

   EN    FR    IT 

 










Sommario :    VFR   VFR Marginale   IFR   IFR Intensivo   IFR Molto Intensivo
Visibilità : 
Base nubi : 
>= 8 km
>= 3000ft
5 / 8 km
1000 / 3000 ft
1500m / 5 km
500 / 1000 ft
800 / 1500m
200 / 500 ft
< 800m
< 200 ft
Simboli :   Temporali  Nebbia  Neve Forte  Precipitazioni Forti  Vento > 20 kt
SIGMETs :   Varie  Temporali  Ghiacco  Turbolenza  Onda orograficha  Ceneri Vulcaniche






- Altitudine del aeroporto : 2001 ft
- Codice IATA : MAD


LEMD - Madrid

ULTIMO METAR :
  • 070930Z 20007KT 130V240 CAVOK 22/10 Q1009 NOSIG

METARs OBSOLETI :
  • 070900Z 23004KT CAVOK 21/10 Q1009 NOSIG
  • 070830Z 14002KT CAVOK 20/10 Q1010 NOSIG
  • 070800Z 15003KT 100V230 CAVOK 19/08 Q1010 NOSIG
  • 070730Z 15003KT 100V220 CAVOK 17/08 Q1009 NOSIG
  • 070700Z VRB02KT CAVOK 17/08 Q1009 NOSIG

TAF TAF LEMD
Valido dal 07 a 06 ore il 08 a 12 ore UTC


070500Z 0706/0812 VRB05KT CAVOK TX25/0715Z TN08/0806Z
TEMPO 0707/0718 26010KT
TEMPO 0709/0806 FEW030TCU
PROB40
TEMPO 0709/0806 3000 SHRA SCT030TCU
PROB40
TEMPO 0712/0721 VRB15G25KT 2000 TSRA SCT030CB



MetMap, La meteo Aeronautica in un colpo d'occhio ! - Copyright ORBIFLY Dicembre 2007 - Disclaimer

ORBIFLY MET'MAP TEAM :

Programmazione e sviluppo : Alexandra Zaïnal
Concezione : Baudouin d'Aumeries
Aiuto per la programmazione : Marc-Olivier Méhu
Supporto tecnico e logistico : Manuel Goepfert
Aiuto per la traduzione : Arnaldo La Scala

Contatto : metmap@orbifly.com




FONTI E CREDITI :

   NOAA